大阪/伊丹 の空港の天気 - METARとTAF

大阪空港 ( RJOO / ITM ) - 兵庫県伊丹市
飛行場実況気象(Metar)
観測時間07/19 12:00 JST (07/19 03:00 UTC)
風向・風速南西 2m/s
視程10km以上
天気現象弱いしゅう雨
少しの雲 雲底高度 180m
全天の4割程度の雲 雲底高度 300m
全天の8割程度の雲 雲底高度 2130m
気温26℃
湿度89%
気圧1013hPa
METARRJOO 190300Z 22004KT 180V280 9999 -SHRA FEW006 SCT010 BKN070 26/24 Q1013 RMK 1ST006 3CU010 6AC070 A2994
過去の天気等 Google飛行場航空写真 Wunderground天気予報

過去48時間のMETAR

飛行場予報(TAF)
発表時間: 7/19 08:08 JST (7/18 23:08 UTC)
予報対象時間: 19日9時 JST ~ 20日15時 JST
風向・風速南南西 2m/s
視程8000m
天気現象弱いしゅう雨
少しの雲 雲底高度 150m
全天の4割程度の雲 雲底高度 300m
全天の8割程度の雲 雲底高度 610m
19日9時 JST ~ 19日14時 JST に一時的に
視程4000m
天気現象しゅう雨 もや
少しの雲 雲底高度 90m
全天の8割程度の雲 雲底高度 270m
全天の8割程度の雲 雲底高度 460m
TAF RJOO 182308Z 1900/2006 20004KT 8000 -SHRA FEW005 SCT010 BKN020
TEMPO 1900/1905 4000 SHRA BR FEW003 BKN009 BKN015
日本の空港のMETAR・TAFへのリンク

RJTT 東京国際空港
RJAA 新東京国際空港
RJBB 関西国際空港
RJOO 大阪空港
RJGG 中部国際空港
RJCC 新千歳空港
RJFF 福岡空港
ROAH 那覇空港


RJEC 旭川空港
RJCH 函館空港
RJCK 釧路空港
RJCM 女満別空港
RJCB 帯広空港
RJSA 青森空港
RJSS 仙台空港
RJSK 秋田空港
RJSF 福島空港
RJAH 茨城空港
RJSN 新潟空港
RJNT 富山空港
RJNK 小松飛行場
RJNS 静岡空港
RJOH 美保飛行場
RJOC 出雲空港
RJOB 岡山空港
RJOA 広島空港
RJOI 岩国飛行場
RJOT 高松空港
RJOM 松山空港
RJOK 高知空港
RJFR 北九州空港
RJFT 熊本空港
RJFU 長崎空港
RJFS 佐賀空港
RJFO 大分空港
RJFM 宮崎空港
RJFK 鹿児島空港
ROIG 石垣島空港
RJTY 横田飛行場
ROTM 普天間飛行場
RODN 嘉手納飛行場